sensor_id;sensor_type;location;lat;lon;timestamp;P1;durP1;ratioP1;P2;durP2;ratioP2
2748;SDS011;1382;52.142;11.618;2024-01-11T00:00:32;34.83;;;15.70;;
2748;SDS011;1382;52.142;11.618;2024-01-11T00:03:00;44.50;;;19.83;;
2748;SDS011;1382;52.142;11.618;2024-01-11T00:05:27;46.10;;;19.33;;
2748;SDS011;1382;52.142;11.618;2024-01-11T00:07:54;32.55;;;15.73;;
2748;SDS011;1382;52.142;11.618;2024-01-11T00:10:21;23.40;;;11.85;;
2748;SDS011;1382;52.142;11.618;2024-01-11T00:12:48;31.70;;;15.50;;
2748;SDS011;1382;52.142;11.618;2024-01-11T00:15:15;41.70;;;18.45;;
2748;SDS011;1382;52.142;11.618;2024-01-11T00:17:42;40.03;;;19.45;;
2748;SDS011;1382;52.142;11.618;2024-01-11T00:20:11;36.92;;;16.35;;
2748;SDS011;1382;52.142;11.618;2024-01-11T00:22:38;44.30;;;17.58;;
2748;SDS011;1382;52.142;11.618;2024-01-11T00:25:05;39.55;;;16.77;;
2748;SDS011;1382;52.142;11.618;2024-01-11T00:27:32;35.80;;;16.65;;
2748;SDS011;1382;52.142;11.618;2024-01-11T00:30:00;35.90;;;16.17;;
2748;SDS011;1382;52.142;11.618;2024-01-11T00:32:30;34.78;;;15.10;;
2748;SDS011;1382;52.142;11.618;2024-01-11T00:34:57;33.50;;;16.75;;
2748;SDS011;1382;52.142;11.618;2024-01-11T00:37:25;27.05;;;13.40;;
2748;SDS011;1382;52.142;11.618;2024-01-11T00:39:52;41.67;;;17.20;;
2748;SDS011;1382;52.142;11.618;2024-01-11T00:42:19;37.17;;;15.30;;
2748;SDS011;1382;52.142;11.618;2024-01-11T00:44:45;35.45;;;17.13;;
2748;SDS011;1382;52.142;11.618;2024-01-11T00:47:12;35.15;;;17.90;;
2748;SDS011;1382;52.142;11.618;2024-01-11T00:49:39;38.10;;;16.98;;
2748;SDS011;1382;52.142;11.618;2024-01-11T00:52:06;27.30;;;14.75;;
2748;SDS011;1382;52.142;11.618;2024-01-11T00:54:34;30.63;;;14.35;;
2748;SDS011;1382;52.142;11.618;2024-01-11T00:57:01;31.23;;;16.30;;
2748;SDS011;1382;52.142;11.618;2024-01-11T00:59:28;26.75;;;12.82;;
2748;SDS011;1382;52.142;11.618;2024-01-11T01:01:55;35.35;;;15.80;;
2748;SDS011;1382;52.142;11.618;2024-01-11T01:04:22;36.65;;;14.88;;
2748;SDS011;1382;52.142;11.618;2024-01-11T01:06:49;33.40;;;16.25;;
2748;SDS011;1382;52.142;11.618;2024-01-11T01:09:16;42.80;;;15.80;;
2748;SDS011;1382;52.142;11.618;2024-01-11T01:11:44;33.50;;;13.68;;
2748;SDS011;1382;52.142;11.618;2024-01-11T01:14:11;27.08;;;12.73;;
2748;SDS011;1382;52.142;11.618;2024-01-11T01:16:38;27.80;;;14.63;;
2748;SDS011;1382;52.142;11.618;2024-01-11T01:19:04;35.53;;;14.48;;
2748;SDS011;1382;52.142;11.618;2024-01-11T01:21:32;32.30;;;15.35;;
2748;SDS011;1382;52.142;11.618;2024-01-11T01:23:58;31.00;;;14.10;;
2748;SDS011;1382;52.142;11.618;2024-01-11T01:26:25;29.30;;;12.73;;
2748;SDS011;1382;52.142;11.618;2024-01-11T01:28:53;24.10;;;11.32;;
2748;SDS011;1382;52.142;11.618;2024-01-11T01:31:20;25.38;;;13.82;;
2748;SDS011;1382;52.142;11.618;2024-01-11T01:33:47;27.13;;;12.98;;
2748;SDS011;1382;52.142;11.618;2024-01-11T01:36:14;32.30;;;13.45;;
2748;SDS011;1382;52.142;11.618;2024-01-11T01:38:41;28.35;;;13.27;;
2748;SDS011;1382;52.142;11.618;2024-01-11T01:41:08;32.10;;;13.05;;
2748;SDS011;1382;52.142;11.618;2024-01-11T01:43:34;25.73;;;13.07;;
2748;SDS011;1382;52.142;11.618;2024-01-11T01:46:03;35.22;;;14.20;;
2748;SDS011;1382;52.142;11.618;2024-01-11T01:48:31;28.40;;;11.27;;
2748;SDS011;1382;52.142;11.618;2024-01-11T01:50:59;22.85;;;12.77;;
2748;SDS011;1382;52.142;11.618;2024-01-11T01:53:26;26.88;;;11.10;;
2748;SDS011;1382;52.142;11.618;2024-01-11T01:55:54;20.90;;;11.68;;
2748;SDS011;1382;52.142;11.618;2024-01-11T01:58:21;23.73;;;11.30;;
2748;SDS011;1382;52.142;11.618;2024-01-11T02:00:49;26.25;;;12.93;;
2748;SDS011;1382;52.142;11.618;2024-01-11T02:03:18;25.13;;;13.55;;
2748;SDS011;1382;52.142;11.618;2024-01-11T02:05:46;20.67;;;9.68;;
2748;SDS011;1382;52.142;11.618;2024-01-11T02:08:15;34.72;;;14.20;;
2748;SDS011;1382;52.142;11.618;2024-01-11T02:10:42;22.55;;;11.80;;
2748;SDS011;1382;52.142;11.618;2024-01-11T02:13:09;30.90;;;13.90;;
2748;SDS011;1382;52.142;11.618;2024-01-11T02:15:37;29.42;;;14.77;;
2748;SDS011;1382;52.142;11.618;2024-01-11T02:18:04;33.25;;;13.15;;
2748;SDS011;1382;52.142;11.618;2024-01-11T02:20:32;22.00;;;12.32;;
2748;SDS011;1382;52.142;11.618;2024-01-11T02:23:01;24.13;;;11.32;;
2748;SDS011;1382;52.142;11.618;2024-01-11T02:25:33;24.42;;;11.05;;
2748;SDS011;1382;52.142;11.618;2024-01-11T02:28:00;24.65;;;13.10;;
2748;SDS011;1382;52.142;11.618;2024-01-11T02:30:27;38.83;;;14.45;;
2748;SDS011;1382;52.142;11.618;2024-01-11T02:32:54;24.08;;;12.32;;
2748;SDS011;1382;52.142;11.618;2024-01-11T02:35:21;29.50;;;12.05;;
2748;SDS011;1382;52.142;11.618;2024-01-11T02:37:49;24.30;;;12.35;;
2748;SDS011;1382;52.142;11.618;2024-01-11T02:40:16;24.15;;;10.77;;
2748;SDS011;1382;52.142;11.618;2024-01-11T02:42:47;22.55;;;11.80;;
2748;SDS011;1382;52.142;11.618;2024-01-11T02:45:14;27.92;;;11.32;;
2748;SDS011;1382;52.142;11.618;2024-01-11T02:47:40;20.60;;;10.10;;
2748;SDS011;1382;52.142;11.618;2024-01-11T02:50:08;30.45;;;13.98;;
2748;SDS011;1382;52.142;11.618;2024-01-11T02:52:35;24.52;;;13.45;;
2748;SDS011;1382;52.142;11.618;2024-01-11T02:55:02;28.50;;;13.35;;
2748;SDS011;1382;52.142;11.618;2024-01-11T02:57:29;29.95;;;14.32;;
2748;SDS011;1382;52.142;11.618;2024-01-11T02:59:57;24.70;;;11.77;;
2748;SDS011;1382;52.142;11.618;2024-01-11T03:02:24;24.00;;;10.45;;
2748;SDS011;1382;52.142;11.618;2024-01-11T03:04:51;31.58;;;13.02;;
2748;SDS011;1382;52.142;11.618;2024-01-11T03:07:18;28.40;;;15.10;;
2748;SDS011;1382;52.142;11.618;2024-01-11T03:09:44;32.05;;;14.23;;
2748;SDS011;1382;52.142;11.618;2024-01-11T03:12:11;28.55;;;14.23;;
2748;SDS011;1382;52.142;11.618;2024-01-11T03:14:38;34.88;;;16.52;;
2748;SDS011;1382;52.142;11.618;2024-01-11T03:17:07;26.58;;;14.07;;
2748;SDS011;1382;52.142;11.618;2024-01-11T03:19:34;29.85;;;14.13;;
2748;SDS011;1382;52.142;11.618;2024-01-11T03:22:05;29.38;;;14.27;;
2748;SDS011;1382;52.142;11.618;2024-01-11T03:24:31;32.13;;;15.60;;
2748;SDS011;1382;52.142;11.618;2024-01-11T03:26:58;27.98;;;11.90;;
2748;SDS011;1382;52.142;11.618;2024-01-11T03:29:25;29.63;;;12.60;;
2748;SDS011;1382;52.142;11.618;2024-01-11T03:31:52;20.30;;;9.70;;
2748;SDS011;1382;52.142;11.618;2024-01-11T03:34:20;20.98;;;11.40;;
2748;SDS011;1382;52.142;11.618;2024-01-11T03:36:47;27.98;;;12.52;;
2748;SDS011;1382;52.142;11.618;2024-01-11T03:39:14;26.92;;;13.93;;
2748;SDS011;1382;52.142;11.618;2024-01-11T03:41:43;29.83;;;13.45;;
2748;SDS011;1382;52.142;11.618;2024-01-11T03:44:10;22.90;;;10.70;;
2748;SDS011;1382;52.142;11.618;2024-01-11T03:46:36;27.42;;;13.43;;
2748;SDS011;1382;52.142;11.618;2024-01-11T03:49:03;31.60;;;12.48;;
2748;SDS011;1382;52.142;11.618;2024-01-11T03:51:31;19.20;;;13.40;;
2748;SDS011;1382;52.142;11.618;2024-01-11T03:53:58;20.77;;;10.77;;
2748;SDS011;1382;52.142;11.618;2024-01-11T03:56:25;22.75;;;12.63;;
2748;SDS011;1382;52.142;11.618;2024-01-11T03:58:52;23.65;;;12.43;;
2748;SDS011;1382;52.142;11.618;2024-01-11T04:01:19;24.73;;;13.07;;
2748;SDS011;1382;52.142;11.618;2024-01-11T04:03:46;16.52;;;9.10;;
2748;SDS011;1382;52.142;11.618;2024-01-11T04:06:18;18.25;;;10.65;;
2748;SDS011;1382;52.142;11.618;2024-01-11T04:08:47;31.77;;;12.25;;
2748;SDS011;1382;52.142;11.618;2024-01-11T04:11:14;25.80;;;11.98;;
2748;SDS011;1382;52.142;11.618;2024-01-11T04:13:40;29.17;;;11.95;;
2748;SDS011;1382;52.142;11.618;2024-01-11T04:16:07;29.98;;;11.15;;
2748;SDS011;1382;52.142;11.618;2024-01-11T04:18:34;21.67;;;13.25;;
2748;SDS011;1382;52.142;11.618;2024-01-11T04:21:01;23.08;;;12.40;;
2748;SDS011;1382;52.142;11.618;2024-01-11T04:23:28;25.13;;;12.73;;
2748;SDS011;1382;52.142;11.618;2024-01-11T04:25:56;25.60;;;12.02;;
2748;SDS011;1382;52.142;11.618;2024-01-11T04:28:23;27.25;;;12.27;;
2748;SDS011;1382;52.142;11.618;2024-01-11T04:30:50;25.20;;;11.95;;
2748;SDS011;1382;52.142;11.618;2024-01-11T04:33:17;24.65;;;10.48;;
2748;SDS011;1382;52.142;11.618;2024-01-11T04:35:43;17.10;;;9.40;;
2748;SDS011;1382;52.142;11.618;2024-01-11T04:38:10;21.02;;;10.60;;
2748;SDS011;1382;52.142;11.618;2024-01-11T04:40:37;29.88;;;13.25;;
2748;SDS011;1382;52.142;11.618;2024-01-11T04:43:06;34.05;;;11.77;;
2748;SDS011;1382;52.142;11.618;2024-01-11T04:45:32;22.73;;;10.88;;
2748;SDS011;1382;52.142;11.618;2024-01-11T04:47:59;26.42;;;12.23;;
2748;SDS011;1382;52.142;11.618;2024-01-11T04:50:26;20.88;;;11.32;;
2748;SDS011;1382;52.142;11.618;2024-01-11T04:52:53;22.35;;;10.48;;
2748;SDS011;1382;52.142;11.618;2024-01-11T04:55:20;17.63;;;10.32;;
2748;SDS011;1382;52.142;11.618;2024-01-11T04:57:47;27.65;;;13.35;;
2748;SDS011;1382;52.142;11.618;2024-01-11T05:00:15;26.05;;;11.95;;
2748;SDS011;1382;52.142;11.618;2024-01-11T05:02:43;23.33;;;11.80;;
2748;SDS011;1382;52.142;11.618;2024-01-11T05:05:10;27.45;;;12.85;;
2748;SDS011;1382;52.142;11.618;2024-01-11T05:07:37;24.50;;;11.00;;
2748;SDS011;1382;52.142;11.618;2024-01-11T05:10:04;26.48;;;11.52;;
2748;SDS011;1382;52.142;11.618;2024-01-11T05:12:31;21.73;;;10.02;;
2748;SDS011;1382;52.142;11.618;2024-01-11T05:14:58;30.38;;;12.10;;
2748;SDS011;1382;52.142;11.618;2024-01-11T05:17:26;24.73;;;10.25;;
2748;SDS011;1382;52.142;11.618;2024-01-11T05:19:53;14.30;;;9.65;;
2748;SDS011;1382;52.142;11.618;2024-01-11T05:22:20;19.73;;;9.73;;
2748;SDS011;1382;52.142;11.618;2024-01-11T05:24:47;14.60;;;8.65;;
2748;SDS011;1382;52.142;11.618;2024-01-11T05:27:14;24.48;;;12.05;;
2748;SDS011;1382;52.142;11.618;2024-01-11T05:29:41;29.63;;;13.20;;
2748;SDS011;1382;52.142;11.618;2024-01-11T05:32:07;23.92;;;9.80;;
2748;SDS011;1382;52.142;11.618;2024-01-11T05:34:36;21.48;;;11.77;;
2748;SDS011;1382;52.142;11.618;2024-01-11T05:37:03;22.73;;;11.75;;
2748;SDS011;1382;52.142;11.618;2024-01-11T05:39:30;33.22;;;13.15;;
2748;SDS011;1382;52.142;11.618;2024-01-11T05:41:57;24.00;;;11.55;;
2748;SDS011;1382;52.142;11.618;2024-01-11T05:44:24;23.38;;;12.40;;
2748;SDS011;1382;52.142;11.618;2024-01-11T05:46:50;25.67;;;11.88;;
2748;SDS011;1382;52.142;11.618;2024-01-11T05:49:17;25.30;;;11.88;;
2748;SDS011;1382;52.142;11.618;2024-01-11T05:51:45;27.52;;;12.70;;
2748;SDS011;1382;52.142;11.618;2024-01-11T05:54:12;23.20;;;11.52;;
2748;SDS011;1382;52.142;11.618;2024-01-11T05:56:39;27.00;;;12.13;;
2748;SDS011;1382;52.142;11.618;2024-01-11T05:59:06;23.65;;;13.27;;
2748;SDS011;1382;52.142;11.618;2024-01-11T06:01:33;27.60;;;12.10;;
2748;SDS011;1382;52.142;11.618;2024-01-11T06:03:59;30.48;;;15.18;;
2748;SDS011;1382;52.142;11.618;2024-01-11T06:06:26;24.10;;;12.48;;
2748;SDS011;1382;52.142;11.618;2024-01-11T06:08:55;31.23;;;14.13;;
2748;SDS011;1382;52.142;11.618;2024-01-11T06:11:21;24.10;;;12.52;;
2748;SDS011;1382;52.142;11.618;2024-01-11T06:13:48;28.48;;;13.25;;
2748;SDS011;1382;52.142;11.618;2024-01-11T06:16:15;24.50;;;14.85;;
2748;SDS011;1382;52.142;11.618;2024-01-11T06:18:42;28.55;;;14.05;;
2748;SDS011;1382;52.142;11.618;2024-01-11T06:21:09;24.00;;;12.82;;
2748;SDS011;1382;52.142;11.618;2024-01-11T06:23:35;34.97;;;13.70;;
2748;SDS011;1382;52.142;11.618;2024-01-11T06:26:04;30.13;;;12.25;;
2748;SDS011;1382;52.142;11.618;2024-01-11T06:28:31;30.77;;;14.45;;
2748;SDS011;1382;52.142;11.618;2024-01-11T06:31:01;31.77;;;13.77;;
2748;SDS011;1382;52.142;11.618;2024-01-11T06:33:28;32.20;;;14.30;;
2748;SDS011;1382;52.142;11.618;2024-01-11T06:35:55;26.48;;;15.90;;
2748;SDS011;1382;52.142;11.618;2024-01-11T06:38:22;30.65;;;11.48;;
2748;SDS011;1382;52.142;11.618;2024-01-11T06:40:49;29.98;;;13.15;;
2748;SDS011;1382;52.142;11.618;2024-01-11T06:43:17;26.40;;;13.88;;
2748;SDS011;1382;52.142;11.618;2024-01-11T06:45:44;32.30;;;15.02;;
2748;SDS011;1382;52.142;11.618;2024-01-11T06:48:11;30.40;;;12.70;;
2748;SDS011;1382;52.142;11.618;2024-01-11T06:50:38;20.83;;;10.40;;
2748;SDS011;1382;52.142;11.618;2024-01-11T06:53:17;21.63;;;10.95;;
2748;SDS011;1382;52.142;11.618;2024-01-11T06:55:44;26.30;;;12.02;;
2748;SDS011;1382;52.142;11.618;2024-01-11T06:58:12;28.42;;;13.00;;
2748;SDS011;1382;52.142;11.618;2024-01-11T07:00:41;26.40;;;12.82;;
2748;SDS011;1382;52.142;11.618;2024-01-11T07:03:08;26.73;;;12.70;;
2748;SDS011;1382;52.142;11.618;2024-01-11T07:05:35;26.80;;;11.43;;
2748;SDS011;1382;52.142;11.618;2024-01-11T07:08:03;20.63;;;12.60;;
2748;SDS011;1382;52.142;11.618;2024-01-11T07:10:30;21.80;;;9.55;;
2748;SDS011;1382;52.142;11.618;2024-01-11T07:12:57;28.17;;;12.80;;
2748;SDS011;1382;52.142;11.618;2024-01-11T07:15:24;30.45;;;13.00;;
2748;SDS011;1382;52.142;11.618;2024-01-11T07:17:52;31.45;;;13.25;;
2748;SDS011;1382;52.142;11.618;2024-01-11T07:20:19;21.67;;;10.13;;
2748;SDS011;1382;52.142;11.618;2024-01-11T07:22:46;25.50;;;13.38;;
2748;SDS011;1382;52.142;11.618;2024-01-11T07:31:34;24.42;;;11.98;;
2748;SDS011;1382;52.142;11.618;2024-01-11T07:37:19;26.60;;;11.75;;
2748;SDS011;1382;52.142;11.618;2024-01-11T07:39:46;24.65;;;11.43;;
2748;SDS011;1382;52.142;11.618;2024-01-11T07:42:15;30.65;;;12.30;;
2748;SDS011;1382;52.142;11.618;2024-01-11T07:44:42;26.63;;;13.30;;
2748;SDS011;1382;52.142;11.618;2024-01-11T07:47:12;25.63;;;11.73;;
2748;SDS011;1382;52.142;11.618;2024-01-11T07:49:39;28.38;;;13.93;;
2748;SDS011;1382;52.142;11.618;2024-01-11T07:52:06;23.25;;;12.32;;
2748;SDS011;1382;52.142;11.618;2024-01-11T07:54:34;35.95;;;13.45;;
2748;SDS011;1382;52.142;11.618;2024-01-11T07:57:01;37.42;;;12.60;;
2748;SDS011;1382;52.142;11.618;2024-01-11T07:59:32;30.23;;;15.35;;
2748;SDS011;1382;52.142;11.618;2024-01-11T08:01:59;38.22;;;13.30;;
2748;SDS011;1382;52.142;11.618;2024-01-11T08:04:25;26.25;;;13.68;;
2748;SDS011;1382;52.142;11.618;2024-01-11T08:06:52;28.60;;;14.27;;
2748;SDS011;1382;52.142;11.618;2024-01-11T08:09:19;28.55;;;12.23;;
2748;SDS011;1382;52.142;11.618;2024-01-11T08:11:49;34.22;;;15.25;;
2748;SDS011;1382;52.142;11.618;2024-01-11T08:14:18;32.92;;;14.85;;
2748;SDS011;1382;52.142;11.618;2024-01-11T08:16:45;33.97;;;16.08;;
2748;SDS011;1382;52.142;11.618;2024-01-11T08:19:12;29.60;;;14.93;;
2748;SDS011;1382;52.142;11.618;2024-01-11T08:21:39;28.27;;;13.63;;
2748;SDS011;1382;52.142;11.618;2024-01-11T08:24:06;25.70;;;13.50;;
2748;SDS011;1382;52.142;11.618;2024-01-11T08:26:33;36.35;;;17.10;;
2748;SDS011;1382;52.142;11.618;2024-01-11T08:29:01;36.08;;;14.70;;
2748;SDS011;1382;52.142;11.618;2024-01-11T08:31:28;38.53;;;16.55;;
2748;SDS011;1382;52.142;11.618;2024-01-11T08:33:55;42.78;;;16.52;;
2748;SDS011;1382;52.142;11.618;2024-01-11T08:36:22;39.53;;;16.80;;
2748;SDS011;1382;52.142;11.618;2024-01-11T08:38:49;24.60;;;14.98;;
2748;SDS011;1382;52.142;11.618;2024-01-11T08:41:16;30.75;;;17.35;;
2748;SDS011;1382;52.142;11.618;2024-01-11T08:43:43;35.13;;;18.48;;
2748;SDS011;1382;52.142;11.618;2024-01-11T08:46:11;42.00;;;19.02;;
2748;SDS011;1382;52.142;11.618;2024-01-11T08:48:38;39.53;;;16.92;;
2748;SDS011;1382;52.142;11.618;2024-01-11T08:51:05;32.78;;;17.67;;
2748;SDS011;1382;52.142;11.618;2024-01-11T08:53:32;37.88;;;17.73;;
2748;SDS011;1382;52.142;11.618;2024-01-11T08:55:59;39.40;;;17.05;;
2748;SDS011;1382;52.142;11.618;2024-01-11T08:58:26;47.78;;;18.38;;
2748;SDS011;1382;52.142;11.618;2024-01-11T09:00:53;33.35;;;16.63;;
2748;SDS011;1382;52.142;11.618;2024-01-11T09:03:21;38.35;;;18.42;;
2748;SDS011;1382;52.142;11.618;2024-01-11T09:05:48;34.63;;;18.50;;
2748;SDS011;1382;52.142;11.618;2024-01-11T09:08:15;48.63;;;18.38;;
2748;SDS011;1382;52.142;11.618;2024-01-11T09:10:42;43.45;;;19.15;;
2748;SDS011;1382;52.142;11.618;2024-01-11T09:13:09;44.47;;;21.58;;
2748;SDS011;1382;52.142;11.618;2024-01-11T09:15:38;36.38;;;18.55;;
2748;SDS011;1382;52.142;11.618;2024-01-11T09:18:05;47.28;;;21.20;;
2748;SDS011;1382;52.142;11.618;2024-01-11T09:20:34;38.78;;;22.95;;
2748;SDS011;1382;52.142;11.618;2024-01-11T09:23:01;46.80;;;19.00;;
2748;SDS011;1382;52.142;11.618;2024-01-11T09:25:28;46.65;;;22.25;;
2748;SDS011;1382;52.142;11.618;2024-01-11T09:27:55;32.65;;;21.92;;
2748;SDS011;1382;52.142;11.618;2024-01-11T09:30:22;38.45;;;19.33;;
2748;SDS011;1382;52.142;11.618;2024-01-11T09:32:49;51.38;;;18.73;;
2748;SDS011;1382;52.142;11.618;2024-01-11T09:35:16;41.28;;;19.17;;
2748;SDS011;1382;52.142;11.618;2024-01-11T09:37:44;29.27;;;15.63;;
2748;SDS011;1382;52.142;11.618;2024-01-11T09:40:11;34.17;;;17.55;;
2748;SDS011;1382;52.142;11.618;2024-01-11T09:42:38;39.42;;;16.55;;
2748;SDS011;1382;52.142;11.618;2024-01-11T09:45:06;35.72;;;22.27;;
2748;SDS011;1382;52.142;11.618;2024-01-11T09:47:35;31.08;;;16.75;;
2748;SDS011;1382;52.142;11.618;2024-01-11T09:50:03;43.05;;;22.23;;
2748;SDS011;1382;52.142;11.618;2024-01-11T09:52:30;38.80;;;20.00;;
2748;SDS011;1382;52.142;11.618;2024-01-11T09:55:00;32.33;;;17.38;;
2748;SDS011;1382;52.142;11.618;2024-01-11T09:57:28;32.15;;;21.38;;
2748;SDS011;1382;52.142;11.618;2024-01-11T09:59:56;35.88;;;20.35;;
2748;SDS011;1382;52.142;11.618;2024-01-11T10:02:24;32.17;;;20.73;;
2748;SDS011;1382;52.142;11.618;2024-01-11T10:04:51;31.45;;;16.50;;
2748;SDS011;1382;52.142;11.618;2024-01-11T10:07:20;28.10;;;15.57;;
2748;SDS011;1382;52.142;11.618;2024-01-11T10:09:48;26.45;;;13.52;;
2748;SDS011;1382;52.142;11.618;2024-01-11T10:12:18;30.48;;;15.18;;
2748;SDS011;1382;52.142;11.618;2024-01-11T10:14:45;21.75;;;11.52;;
2748;SDS011;1382;52.142;11.618;2024-01-11T10:17:12;26.10;;;16.10;;
2748;SDS011;1382;52.142;11.618;2024-01-11T10:19:46;28.40;;;14.88;;
2748;SDS011;1382;52.142;11.618;2024-01-11T10:22:13;24.73;;;13.63;;
2748;SDS011;1382;52.142;11.618;2024-01-11T10:24:40;28.38;;;15.60;;
2748;SDS011;1382;52.142;11.618;2024-01-11T10:27:08;25.27;;;14.95;;
2748;SDS011;1382;52.142;11.618;2024-01-11T10:29:37;22.92;;;12.45;;
2748;SDS011;1382;52.142;11.618;2024-01-11T10:32:04;29.25;;;17.00;;
2748;SDS011;1382;52.142;11.618;2024-01-11T10:34:31;27.80;;;17.23;;
2748;SDS011;1382;52.142;11.618;2024-01-11T10:36:59;26.50;;;16.42;;
2748;SDS011;1382;52.142;11.618;2024-01-11T10:39:26;24.05;;;14.13;;
2748;SDS011;1382;52.142;11.618;2024-01-11T10:41:56;29.05;;;16.60;;
2748;SDS011;1382;52.142;11.618;2024-01-11T10:44:33;27.88;;;17.35;;
2748;SDS011;1382;52.142;11.618;2024-01-11T10:47:03;28.77;;;16.35;;
2748;SDS011;1382;52.142;11.618;2024-01-11T10:49:31;32.63;;;20.48;;
2748;SDS011;1382;52.142;11.618;2024-01-11T10:52:00;34.05;;;19.90;;
2748;SDS011;1382;52.142;11.618;2024-01-11T10:54:28;28.38;;;14.50;;
2748;SDS011;1382;52.142;11.618;2024-01-11T10:56:56;27.08;;;14.98;;
2748;SDS011;1382;52.142;11.618;2024-01-11T10:59:26;25.67;;;14.52;;
2748;SDS011;1382;52.142;11.618;2024-01-11T11:01:53;27.33;;;15.07;;
2748;SDS011;1382;52.142;11.618;2024-01-11T11:04:23;31.10;;;18.67;;
2748;SDS011;1382;52.142;11.618;2024-01-11T11:06:53;31.20;;;16.23;;
2748;SDS011;1382;52.142;11.618;2024-01-11T11:09:21;30.80;;;17.15;;
2748;SDS011;1382;52.142;11.618;2024-01-11T11:11:49;28.40;;;15.60;;
2748;SDS011;1382;52.142;11.618;2024-01-11T11:14:16;31.08;;;19.00;;
2748;SDS011;1382;52.142;11.618;2024-01-11T11:19:10;29.13;;;17.77;;
2748;SDS011;1382;52.142;11.618;2024-01-11T11:21:43;29.55;;;15.80;;
2748;SDS011;1382;52.142;11.618;2024-01-11T11:24:10;26.55;;;14.40;;
2748;SDS011;1382;52.142;11.618;2024-01-11T11:26:37;22.30;;;12.15;;
2748;SDS011;1382;52.142;11.618;2024-01-11T11:29:05;24.55;;;15.20;;
2748;SDS011;1382;52.142;11.618;2024-01-11T11:31:36;23.95;;;15.13;;
2748;SDS011;1382;52.142;11.618;2024-01-11T11:34:04;20.88;;;13.75;;
2748;SDS011;1382;52.142;11.618;2024-01-11T11:36:35;23.38;;;12.63;;
2748;SDS011;1382;52.142;11.618;2024-01-11T11:39:04;24.63;;;11.68;;
2748;SDS011;1382;52.142;11.618;2024-01-11T11:41:39;23.85;;;12.95;;
2748;SDS011;1382;52.142;11.618;2024-01-11T11:44:11;24.95;;;13.73;;
2748;SDS011;1382;52.142;11.618;2024-01-11T11:46:41;25.65;;;12.98;;
2748;SDS011;1382;52.142;11.618;2024-01-11T11:49:09;20.10;;;13.15;;
2748;SDS011;1382;52.142;11.618;2024-01-11T11:51:42;24.08;;;11.02;;
2748;SDS011;1382;52.142;11.618;2024-01-11T11:54:13;20.05;;;9.82;;
2748;SDS011;1382;52.142;11.618;2024-01-11T11:56:41;24.85;;;12.90;;
2748;SDS011;1382;52.142;11.618;2024-01-11T11:59:18;24.33;;;16.05;;
2748;SDS011;1382;52.142;11.618;2024-01-11T12:01:46;24.38;;;17.10;;
2748;SDS011;1382;52.142;11.618;2024-01-11T12:04:14;24.02;;;13.77;;
2748;SDS011;1382;52.142;11.618;2024-01-11T12:06:43;26.67;;;11.45;;
2748;SDS011;1382;52.142;11.618;2024-01-11T12:09:21;22.95;;;13.95;;
2748;SDS011;1382;52.142;11.618;2024-01-11T12:11:52;22.90;;;14.07;;
2748;SDS011;1382;52.142;11.618;2024-01-11T12:14:35;26.52;;;12.02;;
2748;SDS011;1382;52.142;11.618;2024-01-11T12:17:11;24.67;;;11.85;;
2748;SDS011;1382;52.142;11.618;2024-01-11T12:19:53;23.67;;;12.23;;
2748;SDS011;1382;52.142;11.618;2024-01-11T12:23:02;21.38;;;12.63;;
2748;SDS011;1382;52.142;11.618;2024-01-11T12:25:50;26.35;;;12.43;;
2748;SDS011;1382;52.142;11.618;2024-01-11T12:28:23;27.60;;;12.60;;
2748;SDS011;1382;52.142;11.618;2024-01-11T12:30:55;33.80;;;14.25;;
2748;SDS011;1382;52.142;11.618;2024-01-11T12:33:25;31.45;;;15.82;;
2748;SDS011;1382;52.142;11.618;2024-01-11T12:35:54;30.23;;;16.08;;
2748;SDS011;1382;52.142;11.618;2024-01-11T12:38:21;35.47;;;18.48;;
2748;SDS011;1382;52.142;11.618;2024-01-11T12:40:48;39.97;;;17.88;;
2748;SDS011;1382;52.142;11.618;2024-01-11T12:43:17;39.45;;;21.77;;
2748;SDS011;1382;52.142;11.618;2024-01-11T12:45:44;39.15;;;18.63;;
2748;SDS011;1382;52.142;11.618;2024-01-11T12:48:11;41.15;;;16.48;;
2748;SDS011;1382;52.142;11.618;2024-01-11T12:50:38;46.33;;;20.67;;
2748;SDS011;1382;52.142;11.618;2024-01-11T12:53:06;38.05;;;17.15;;
2748;SDS011;1382;52.142;11.618;2024-01-11T12:55:33;39.72;;;18.45;;
2748;SDS011;1382;52.142;11.618;2024-01-11T12:58:20;42.30;;;18.05;;
2748;SDS011;1382;52.142;11.618;2024-01-11T13:00:48;41.95;;;17.27;;
2748;SDS011;1382;52.142;11.618;2024-01-11T13:03:15;36.03;;;16.20;;
2748;SDS011;1382;52.142;11.618;2024-01-11T13:05:42;41.22;;;18.17;;
2748;SDS011;1382;52.142;11.618;2024-01-11T13:08:09;43.83;;;21.75;;
2748;SDS011;1382;52.142;11.618;2024-01-11T13:10:36;41.38;;;18.73;;
2748;SDS011;1382;52.142;11.618;2024-01-11T13:13:03;36.17;;;13.82;;
2748;SDS011;1382;52.142;11.618;2024-01-11T13:15:36;38.17;;;16.45;;
2748;SDS011;1382;52.142;11.618;2024-01-11T13:18:03;46.63;;;19.25;;
2748;SDS011;1382;52.142;11.618;2024-01-11T13:20:30;51.40;;;22.52;;
2748;SDS011;1382;52.142;11.618;2024-01-11T13:23:13;42.80;;;15.97;;
2748;SDS011;1382;52.142;11.618;2024-01-11T13:25:41;41.60;;;18.98;;
2748;SDS011;1382;52.142;11.618;2024-01-11T13:28:09;41.95;;;15.02;;
2748;SDS011;1382;52.142;11.618;2024-01-11T13:30:37;43.05;;;15.65;;
2748;SDS011;1382;52.142;11.618;2024-01-11T13:33:04;39.35;;;15.10;;
2748;SDS011;1382;52.142;11.618;2024-01-11T13:35:32;50.13;;;18.23;;
2748;SDS011;1382;52.142;11.618;2024-01-11T13:37:59;37.17;;;15.30;;
2748;SDS011;1382;52.142;11.618;2024-01-11T13:40:26;39.40;;;16.43;;
2748;SDS011;1382;52.142;11.618;2024-01-11T13:42:53;38.83;;;17.30;;
2748;SDS011;1382;52.142;11.618;2024-01-11T13:45:20;41.53;;;15.50;;
2748;SDS011;1382;52.142;11.618;2024-01-11T13:47:48;46.70;;;18.77;;
2748;SDS011;1382;52.142;11.618;2024-01-11T13:50:15;37.40;;;16.83;;
2748;SDS011;1382;52.142;11.618;2024-01-11T13:52:43;42.40;;;18.23;;
2748;SDS011;1382;52.142;11.618;2024-01-11T13:55:10;41.20;;;19.10;;
2748;SDS011;1382;52.142;11.618;2024-01-11T13:57:37;40.23;;;15.00;;
2748;SDS011;1382;52.142;11.618;2024-01-11T14:00:04;38.33;;;14.43;;
2748;SDS011;1382;52.142;11.618;2024-01-11T14:02:32;32.70;;;16.25;;
2748;SDS011;1382;52.142;11.618;2024-01-11T14:05:00;38.27;;;15.10;;
2748;SDS011;1382;52.142;11.618;2024-01-11T14:07:27;34.93;;;14.47;;
2748;SDS011;1382;52.142;11.618;2024-01-11T14:09:54;29.58;;;13.95;;
2748;SDS011;1382;52.142;11.618;2024-01-11T14:12:21;36.13;;;19.70;;
2748;SDS011;1382;52.142;11.618;2024-01-11T14:14:48;31.65;;;13.80;;
2748;SDS011;1382;52.142;11.618;2024-01-11T14:17:15;31.97;;;13.67;;
2748;SDS011;1382;52.142;11.618;2024-01-11T14:19:42;31.27;;;13.40;;
2748;SDS011;1382;52.142;11.618;2024-01-11T14:22:10;34.63;;;12.80;;
2748;SDS011;1382;52.142;11.618;2024-01-11T14:24:37;27.30;;;12.60;;
2748;SDS011;1382;52.142;11.618;2024-01-11T14:27:04;36.77;;;14.33;;
2748;SDS011;1382;52.142;11.618;2024-01-11T14:29:31;28.33;;;11.03;;
2748;SDS011;1382;52.142;11.618;2024-01-11T14:31:58;27.30;;;10.70;;
2748;SDS011;1382;52.142;11.618;2024-01-11T14:34:24;23.90;;;10.73;;
2748;SDS011;1382;52.142;11.618;2024-01-11T14:36:54;21.40;;;10.43;;
2748;SDS011;1382;52.142;11.618;2024-01-11T14:39:22;31.47;;;13.30;;
2748;SDS011;1382;52.142;11.618;2024-01-11T14:41:49;25.67;;;11.17;;
2748;SDS011;1382;52.142;11.618;2024-01-11T14:44:16;29.33;;;13.30;;
2748;SDS011;1382;52.142;11.618;2024-01-11T14:46:43;29.13;;;12.83;;
2748;SDS011;1382;52.142;11.618;2024-01-11T14:49:09;28.30;;;11.43;;
2748;SDS011;1382;52.142;11.618;2024-01-11T14:51:36;24.47;;;10.77;;